Time;durP1;ratioP1;P1;durP2;ratioP2;P2;SDS_P1;SDS_P2;PMS_P1;PMS_P2;Temp;Humidity;BMP_temperature;BMP_pressure;BME280_temperature;BME280_humidity;BME280_pressure;Samples;Min_cycle;Max_cycle;Signal;HPM_P1;HPM_P2
2023/09/19 00:01:33;;;;;;;6.20;2.73;;;15.40;99.90;;;;;;5081431;28;20416;-70
2023/09/19 00:03:59;;;;;;;6.60;2.17;;;15.40;99.90;;;;;;5080816;28;20443;-70
2023/09/19 00:06:27;;;;;;;4.07;2.00;;;15.40;99.90;;;;;;5080438;28;20470;-72
2023/09/19 00:08:54;;;;;;;3.77;1.80;;;15.40;99.90;;;;;;5082590;28;20411;-70
2023/09/19 00:11:20;;;;;;;3.07;1.70;;;15.40;99.90;;;;;;5078550;28;20427;-71
2023/09/19 00:13:49;;;;;;;2.97;1.70;;;15.40;99.90;;;;;;5082172;28;20435;-71
2023/09/19 00:16:15;;;;;;;3.00;1.93;;;15.40;99.90;;;;;;5083649;28;20180;-71
2023/09/19 00:18:42;;;;;;;3.27;1.87;;;15.40;99.90;;;;;;5082803;28;20419;-70
2023/09/19 00:21:08;;;;;;;3.30;2.20;;;15.40;99.90;;;;;;5082535;28;20192;-71
2023/09/19 00:23:33;;;;;;;4.87;1.90;;;15.30;99.90;;;;;;5080473;28;20758;-71
2023/09/19 00:26:00;;;;;;;2.77;1.70;;;15.30;99.90;;;;;;5080420;28;20334;-70
2023/09/19 00:28:26;;;;;;;4.50;2.20;;;15.30;99.90;;;;;;5079189;28;20193;-70
2023/09/19 00:30:55;;;;;;;5.70;1.90;;;15.30;99.90;;;;;;5079434;28;20458;-68
2023/09/19 00:33:21;;;;;;;9.90;2.00;;;15.20;99.90;;;;;;5080248;28;20431;-70
2023/09/19 00:35:54;;;;;;;3.33;2.03;;;15.20;99.90;;;;;;5080052;28;20435;-70
2023/09/19 00:38:21;;;;;;;4.77;1.73;;;15.20;99.90;;;;;;5078899;28;20404;-71
2023/09/19 00:40:48;;;;;;;3.30;2.20;;;15.20;99.90;;;;;;5079759;28;20450;-70
2023/09/19 00:43:13;;;;;;;5.73;1.80;;;15.10;99.90;;;;;;5080060;28;20459;-71
2023/09/19 00:45:43;;;;;;;3.27;2.07;;;15.10;99.90;;;;;;5079038;28;20423;-70
2023/09/19 00:48:09;;;;;;;3.03;1.43;;;15.10;99.90;;;;;;5080432;28;20209;-70
2023/09/19 00:50:36;;;;;;;3.27;1.83;;;15.10;99.90;;;;;;5078839;28;20419;-71
2023/09/19 00:53:09;;;;;;;4.13;1.47;;;15.00;99.90;;;;;;5080923;28;20439;-71
2023/09/19 00:55:42;;;;;;;4.30;1.60;;;15.00;99.90;;;;;;5081826;28;20702;-70
2023/09/19 00:58:10;;;;;;;3.93;2.00;;;15.00;99.90;;;;;;5080534;28;20851;-72
2023/09/19 01:00:36;;;;;;;1.60;1.30;;;15.00;99.90;;;;;;5080933;28;20419;-71
2023/09/19 01:03:02;;;;;;;4.13;2.03;;;15.10;99.90;;;;;;5082321;28;20443;-70
2023/09/19 01:05:28;;;;;;;3.50;1.63;;;15.10;99.90;;;;;;5080774;28;20384;-70
2023/09/19 01:07:53;;;;;;;3.80;1.53;;;15.20;99.90;;;;;;5078796;28;20451;-71
2023/09/19 01:10:20;;;;;;;3.10;1.73;;;15.30;99.90;;;;;;5078427;28;20242;-70
2023/09/19 01:12:52;;;;;;;3.80;1.80;;;15.40;99.90;;;;;;5077230;28;20196;-70
2023/09/19 01:15:36;;;;;;;3.47;1.80;;;15.50;99.90;;;;;;5079176;28;20416;-72
2023/09/19 01:18:45;;;;;;;3.43;1.77;;;15.60;99.90;;;;;;5078040;28;20419;-71
2023/09/19 01:21:54;;;;;;;5.13;1.60;;;15.70;99.90;;;;;;5071689;28;20715;-70
2023/09/19 01:24:54;;;;;;;4.60;2.20;;;15.60;99.90;;;;;;5078490;28;20438;-70
2023/09/19 01:28:00;;;;;;;3.67;2.10;;;15.60;99.90;;;;;;5078461;28;20466;-71
2023/09/19 01:30:31;;;;;;;3.13;1.73;;;15.50;99.90;;;;;;5036408;28;20508;-70
2023/09/19 01:32:57;;;;;;;6.63;2.10;;;15.40;99.90;;;;;;5020129;28;20452;-71
2023/09/19 01:35:23;;;;;;;3.80;2.03;;;15.40;99.90;;;;;;5035848;28;20916;-68
2023/09/19 01:37:48;;;;;;;5.10;3.03;;;15.40;99.90;;;;;;5036108;28;20436;-70
2023/09/19 01:40:18;;;;;;;6.53;1.83;;;15.40;99.90;;;;;;5036085;28;20369;-70
2023/09/19 01:42:56;;;;;;;4.63;2.30;;;15.40;99.90;;;;;;5018381;28;20261;-70
2023/09/19 01:45:43;;;;;;;4.10;2.20;;;15.40;99.90;;;;;;5022551;28;20433;-71
2023/09/19 01:48:23;;;;;;;5.30;2.33;;;15.40;99.90;;;;;;5019828;28;20468;-70
2023/09/19 01:50:58;;;;;;;7.97;2.53;;;15.40;99.90;;;;;;5019691;28;20772;-69
2023/09/19 01:53:49;;;;;;;6.17;1.90;;;15.40;99.90;;;;;;5019502;28;20915;-70
2023/09/19 01:56:44;;;;;;;8.80;2.70;;;15.40;99.90;;;;;;5017667;28;20900;-71
2023/09/19 01:59:13;;;;;;;4.90;2.00;;;15.40;99.90;;;;;;5019220;28;20639;-71
2023/09/19 02:01:40;;;;;;;5.33;2.10;;;15.40;99.90;;;;;;5058412;28;20515;-70
2023/09/19 02:04:07;;;;;;;5.83;2.50;;;15.40;99.90;;;;;;5080920;28;20718;-70
2023/09/19 02:06:33;;;;;;;6.73;2.27;;;15.40;99.90;;;;;;5067212;28;20644;-70
2023/09/19 02:08:59;;;;;;;8.07;2.40;;;15.40;99.90;;;;;;5078020;28;20411;-71
2023/09/19 02:11:25;;;;;;;6.90;2.30;;;15.40;99.90;;;;;;5080421;28;20442;-71
2023/09/19 02:13:54;;;;;;;9.30;2.27;;;15.40;99.90;;;;;;5077100;28;20216;-70
2023/09/19 02:16:20;;;;;;;6.07;1.80;;;15.40;99.90;;;;;;5078412;28;20226;-70
2023/09/19 02:18:49;;;;;;;9.90;3.00;;;15.40;99.90;;;;;;5078600;28;20443;-70
2023/09/19 02:21:16;;;;;;;4.50;1.90;;;15.40;99.90;;;;;;5078128;28;20469;-69
2023/09/19 02:23:43;;;;;;;4.47;2.00;;;15.40;99.90;;;;;;5076990;28;20488;-71
2023/09/19 02:26:09;;;;;;;5.33;2.90;;;15.40;99.90;;;;;;5076222;28;20447;-71
2023/09/19 02:28:35;;;;;;;5.47;2.40;;;15.40;99.90;;;;;;5078084;28;20442;-71
2023/09/19 02:31:01;;;;;;;4.97;2.03;;;15.40;99.90;;;;;;5077279;28;20181;-70
2023/09/19 02:33:32;;;;;;;7.93;2.20;;;15.30;99.90;;;;;;5077906;28;20443;-69
2023/09/19 02:35:58;;;;;;;5.70;2.40;;;15.30;99.90;;;;;;5078040;28;20695;-70
2023/09/19 02:38:25;;;;;;;8.13;2.70;;;15.30;99.90;;;;;;5076982;28;20751;-70
2023/09/19 02:40:52;;;;;;;9.50;2.33;;;15.30;99.90;;;;;;5075690;28;20862;-72
2023/09/19 02:43:19;;;;;;;5.10;1.77;;;15.30;99.90;;;;;;5077727;28;20431;-71
2023/09/19 02:45:46;;;;;;;4.70;2.10;;;15.30;99.90;;;;;;5077640;28;20473;-70
2023/09/19 02:48:12;;;;;;;8.60;2.27;;;15.20;99.90;;;;;;5076129;28;20754;-70
2023/09/19 02:50:40;;;;;;;4.83;1.90;;;15.20;99.90;;;;;;5076769;28;20712;-70
2023/09/19 02:53:06;;;;;;;4.57;1.70;;;15.20;99.90;;;;;;5077153;28;20240;-70
2023/09/19 02:55:32;;;;;;;10.23;2.93;;;15.20;99.90;;;;;;5077273;28;20404;-71
2023/09/19 02:57:59;;;;;;;4.00;2.30;;;15.20;99.90;;;;;;5076564;28;20197;-71
2023/09/19 03:00:24;;;;;;;10.10;2.40;;;15.10;99.90;;;;;;5077195;28;20484;-70
2023/09/19 03:02:52;;;;;;;4.50;2.23;;;15.20;99.90;;;;;;5075805;28;20250;-71
2023/09/19 03:05:19;;;;;;;9.73;2.87;;;15.10;99.90;;;;;;5059726;28;20204;-71
2023/09/19 03:07:51;;;;;;;5.97;2.67;;;15.10;99.90;;;;;;5076910;28;20458;-70
2023/09/19 03:10:20;;;;;;;6.73;2.13;;;15.10;99.90;;;;;;5076285;28;20506;-71
2023/09/19 03:12:47;;;;;;;3.87;1.87;;;15.10;99.90;;;;;;5076500;28;20873;-70
2023/09/19 03:15:15;;;;;;;4.60;1.87;;;15.10;99.90;;;;;;5080615;28;20701;-69
2023/09/19 03:17:47;;;;;;;3.40;1.63;;;15.00;99.90;;;;;;5079208;28;20925;-70
2023/09/19 03:20:18;;;;;;;4.07;1.83;;;15.00;99.90;;;;;;5079346;28;20407;-72
2023/09/19 03:22:46;;;;;;;8.20;1.97;;;14.90;99.90;;;;;;5080104;28;20433;-71
2023/09/19 03:25:12;;;;;;;5.27;2.40;;;14.90;99.90;;;;;;5079588;28;21094;-71
2023/09/19 03:27:40;;;;;;;8.40;2.03;;;14.90;99.90;;;;;;5080050;28;20216;-70
2023/09/19 03:30:08;;;;;;;7.33;2.27;;;14.80;99.90;;;;;;5079413;28;20419;-71
2023/09/19 03:32:47;;;;;;;8.27;2.37;;;14.80;99.90;;;;;;5080405;28;20828;-71
2023/09/19 03:35:14;;;;;;;4.87;1.80;;;14.80;99.90;;;;;;5080312;28;20406;-70
2023/09/19 03:37:41;;;;;;;5.60;2.23;;;14.80;99.90;;;;;;5080675;28;20403;-69
2023/09/19 03:40:11;;;;;;;4.40;1.93;;;14.80;99.90;;;;;;5079231;28;20468;-71
2023/09/19 03:42:41;;;;;;;5.20;1.80;;;14.70;99.90;;;;;;5079090;28;20502;-72
2023/09/19 03:45:12;;;;;;;6.23;2.57;;;14.70;99.90;;;;;;5079007;28;20403;-71
2023/09/19 03:47:40;;;;;;;6.60;2.63;;;14.70;99.90;;;;;;5079285;28;20929;-71
2023/09/19 03:50:10;;;;;;;7.30;2.10;;;14.70;99.90;;;;;;5080506;28;20702;-72
2023/09/19 03:52:36;;;;;;;6.30;2.23;;;14.70;99.90;;;;;;5081321;28;20399;-70
2023/09/19 03:55:04;;;;;;;6.67;2.30;;;14.70;99.90;;;;;;5081699;28;20422;-71
2023/09/19 03:57:30;;;;;;;5.50;2.00;;;14.70;99.90;;;;;;5079717;28;20193;-71
2023/09/19 03:59:56;;;;;;;5.50;2.13;;;14.70;99.90;;;;;;5080091;28;20699;-71
2023/09/19 04:02:22;;;;;;;5.63;1.97;;;14.70;99.90;;;;;;5080758;28;20288;-70
2023/09/19 04:04:50;;;;;;;4.33;1.67;;;14.60;99.90;;;;;;5079600;28;20204;-71
2023/09/19 04:07:16;;;;;;;9.63;2.70;;;14.60;99.90;;;;;;5062446;28;20614;-70
2023/09/19 04:09:41;;;;;;;8.37;2.80;;;14.70;99.90;;;;;;5079980;28;20415;-71
2023/09/19 04:12:08;;;;;;;7.90;2.30;;;14.60;99.90;;;;;;5080401;28;20704;-70
2023/09/19 04:14:34;;;;;;;7.10;3.17;;;14.60;99.90;;;;;;5082487;28;20225;-71
2023/09/19 04:17:00;;;;;;;11.30;2.77;;;14.60;99.90;;;;;;5080847;28;20403;-71
2023/09/19 04:19:26;;;;;;;4.83;2.03;;;14.60;99.90;;;;;;5062855;28;20185;-72
2023/09/19 04:21:52;;;;;;;3.47;1.97;;;14.60;99.90;;;;;;5062807;28;20404;-70
2023/09/19 04:24:19;;;;;;;8.47;2.30;;;14.60;99.90;;;;;;5045449;28;20229;-72
2023/09/19 04:26:45;;;;;;;4.67;2.20;;;14.50;99.90;;;;;;5071990;28;20617;-72
2023/09/19 04:29:13;;;;;;;2.70;1.50;;;14.50;99.90;;;;;;5079566;28;20704;-71
2023/09/19 04:31:40;;;;;;;4.70;2.10;;;14.50;99.90;;;;;;5082030;28;20561;-71
2023/09/19 04:34:10;;;;;;;7.07;2.10;;;14.60;99.90;;;;;;5081644;28;20439;-71
2023/09/19 04:36:36;;;;;;;7.63;2.33;;;14.50;99.90;;;;;;5082318;28;20485;-70
2023/09/19 04:39:04;;;;;;;6.80;2.50;;;14.60;99.90;;;;;;5081632;28;20405;-71
2023/09/19 04:41:30;;;;;;;4.93;2.47;;;14.60;99.90;;;;;;5080881;28;20544;-72
2023/09/19 04:43:56;;;;;;;4.23;1.70;;;14.50;99.90;;;;;;5079863;28;20446;-72
2023/09/19 04:46:21;;;;;;;6.07;1.90;;;14.50;99.90;;;;;;5082447;28;20216;-71
2023/09/19 04:48:47;;;;;;;6.50;1.90;;;14.50;99.90;;;;;;5082287;28;20597;-71
2023/09/19 04:51:13;;;;;;;10.20;2.20;;;14.50;99.90;;;;;;5081198;28;20245;-72
2023/09/19 04:53:39;;;;;;;8.87;2.23;;;14.50;99.90;;;;;;5081055;28;20220;-70
2023/09/19 04:56:06;;;;;;;6.00;2.00;;;14.50;99.90;;;;;;5081738;28;20512;-72
2023/09/19 04:58:32;;;;;;;12.63;2.83;;;14.40;99.90;;;;;;5083613;28;20219;-72
2023/09/19 05:00:57;;;;;;;4.37;1.90;;;14.40;99.90;;;;;;5082027;28;20423;-72
2023/09/19 05:03:23;;;;;;;7.40;2.07;;;14.40;99.90;;;;;;5081798;28;20193;-72
2023/09/19 05:05:48;;;;;;;6.77;2.40;;;14.40;99.90;;;;;;5082141;28;20173;-70
2023/09/19 05:08:14;;;;;;;5.67;2.70;;;14.40;99.90;;;;;;5083661;28;20331;-71
2023/09/19 05:10:40;;;;;;;8.27;2.17;;;14.40;99.90;;;;;;5083905;28;20176;-71
2023/09/19 05:13:07;;;;;;;6.77;2.83;;;14.40;99.90;;;;;;5083964;28;20428;-71
2023/09/19 05:15:33;;;;;;;8.60;2.83;;;14.40;99.90;;;;;;5084369;28;20416;-72
2023/09/19 05:17:59;;;;;;;7.70;3.43;;;14.40;99.90;;;;;;5081946;28;20430;-74
2023/09/19 05:20:29;;;;;;;8.37;2.87;;;14.40;99.90;;;;;;5082850;28;21107;-73
2023/09/19 05:23:01;;;;;;;10.70;3.63;;;14.40;99.90;;;;;;5083776;28;20192;-72
2023/09/19 05:25:29;;;;;;;6.80;3.30;;;14.40;99.90;;;;;;5083678;28;20449;-71
2023/09/19 05:27:57;;;;;;;7.17;2.67;;;14.40;99.90;;;;;;5102227;28;20702;-74
2023/09/19 05:30:24;;;;;;;5.60;2.17;;;14.40;99.90;;;;;;5082568;28;20453;-72
2023/09/19 05:32:51;;;;;;;6.80;2.60;;;14.40;99.90;;;;;;5084472;28;20388;-72
2023/09/19 05:35:16;;;;;;;7.27;2.63;;;14.40;99.90;;;;;;5084017;28;20399;-73
2023/09/19 05:37:42;;;;;;;8.60;2.17;;;14.50;99.90;;;;;;5086971;28;20487;-73
2023/09/19 05:40:11;;;;;;;4.00;1.93;;;14.40;99.90;;;;;;5086785;28;20185;-73
2023/09/19 05:42:39;;;;;;;8.67;2.50;;;14.40;99.90;;;;;;5084714;28;20203;-71
2023/09/19 05:45:07;;;;;;;6.60;3.20;;;14.50;99.90;;;;;;5085424;28;20408;-75
2023/09/19 05:47:32;;;;;;;7.27;2.63;;;14.50;99.90;;;;;;5070036;28;20462;-73
2023/09/19 05:49:59;;;;;;;5.90;2.13;;;14.60;99.90;;;;;;5082803;28;20439;-72
2023/09/19 05:52:25;;;;;;;10.33;3.70;;;14.60;99.90;;;;;;5084354;28;20183;-72
2023/09/19 05:54:50;;;;;;;3.80;2.00;;;14.70;99.90;;;;;;5085560;28;20447;-74
2023/09/19 05:57:16;;;;;;;8.00;2.50;;;14.70;99.90;;;;;;5088340;28;20594;-72
2023/09/19 05:59:43;;;;;;;5.90;2.20;;;14.70;99.90;;;;;;5087413;28;20195;-71
2023/09/19 06:02:11;;;;;;;3.73;2.00;;;14.80;99.90;;;;;;5091503;28;20193;-72
2023/09/19 06:04:40;;;;;;;6.80;3.00;;;14.80;99.90;;;;;;5089835;28;20544;-72
2023/09/19 06:07:06;;;;;;;6.83;2.30;;;14.90;99.90;;;;;;5088751;28;20439;-72
2023/09/19 06:09:32;;;;;;;6.43;2.27;;;14.90;99.90;;;;;;5090217;28;20439;-71
2023/09/19 06:11:58;;;;;;;5.43;2.40;;;15.00;99.90;;;;;;5087848;28;20177;-72
2023/09/19 06:14:24;;;;;;;8.30;2.33;;;15.00;99.90;;;;;;5089472;28;20212;-74
2023/09/19 06:16:50;;;;;;;7.50;2.37;;;15.10;99.90;;;;;;5084884;28;20480;-73
2023/09/19 06:19:16;;;;;;;6.90;2.57;;;15.20;99.90;;;;;;5085678;28;20467;-73
2023/09/19 06:21:42;;;;;;;5.73;2.50;;;15.20;99.90;;;;;;5084787;28;20697;-74
2023/09/19 06:24:09;;;;;;;9.03;2.47;;;15.30;99.90;;;;;;5086680;28;20873;-74
2023/09/19 06:26:36;;;;;;;13.13;3.77;;;15.40;99.90;;;;;;5096952;28;20475;-76
2023/09/19 06:29:04;;;;;;;7.03;2.53;;;15.40;99.90;;;;;;5098387;28;20391;-76
2023/09/19 06:31:31;;;;;;;7.13;2.80;;;15.50;99.90;;;;;;5459842;22;20473;-76
2023/09/19 06:33:58;;;;;;;4.73;1.93;;;15.50;99.90;;;;;;5052174;28;20429;-73
2023/09/19 06:36:24;;;;;;;5.33;1.80;;;15.60;99.90;;;;;;5050100;28;20481;-74
2023/09/19 06:38:51;;;;;;;4.40;2.00;;;15.60;99.90;;;;;;5048554;28;20424;-73
2023/09/19 06:41:17;;;;;;;7.33;2.40;;;15.70;99.90;;;;;;5050893;28;20202;-75
2023/09/19 06:43:43;;;;;;;5.27;2.30;;;15.80;99.90;;;;;;5048937;28;20461;-74
2023/09/19 06:46:09;;;;;;;10.77;2.90;;;15.80;99.90;;;;;;5032915;28;20401;-74
2023/09/19 06:48:35;;;;;;;5.73;3.03;;;15.90;99.90;;;;;;5049126;28;20452;-74
2023/09/19 06:51:04;;;;;;;8.93;2.77;;;15.90;99.90;;;;;;5049855;28;20199;-74
2023/09/19 06:53:32;;;;;;;7.87;2.77;;;16.00;99.90;;;;;;5033132;28;20437;-74
2023/09/19 06:56:02;;;;;;;4.83;1.93;;;16.10;99.90;;;;;;5056792;28;20412;-75
2023/09/19 06:58:29;;;;;;;7.70;2.17;;;16.20;99.90;;;;;;5053186;28;20427;-73
2023/09/19 07:00:56;;;;;;;6.67;2.27;;;16.30;99.90;;;;;;5061968;28;20401;-74
2023/09/19 07:03:26;;;;;;;2.93;1.50;;;16.40;99.90;;;;;;5053597;28;20215;-73
2023/09/19 07:05:52;;;;;;;6.53;2.87;;;16.50;99.90;;;;;;5053368;28;20452;-74
2023/09/19 07:08:19;;;;;;;8.23;3.17;;;16.60;99.90;;;;;;5054001;28;20445;-74
2023/09/19 07:10:48;;;;;;;5.80;3.63;;;16.60;99.90;;;;;;5051238;28;20426;-74
2023/09/19 07:13:17;;;;;;;8.83;4.10;;;16.70;99.90;;;;;;5053299;28;20413;-75
2023/09/19 07:15:49;;;;;;;7.20;2.70;;;16.80;99.90;;;;;;5052273;28;20497;-75
2023/09/19 07:18:16;;;;;;;5.00;2.23;;;16.80;99.90;;;;;;5051741;28;20438;-73
2023/09/19 07:20:48;;;;;;;13.67;3.50;;;16.90;99.90;;;;;;5051768;28;20485;-72
2023/09/19 07:23:22;;;;;;;12.67;3.00;;;17.00;99.90;;;;;;5049762;28;20443;-72
2023/09/19 07:25:48;;;;;;;7.03;3.20;;;17.10;99.90;;;;;;5049040;28;20429;-72
2023/09/19 07:28:14;;;;;;;10.50;3.00;;;17.10;99.90;;;;;;5050356;28;20475;-74
2023/09/19 07:30:41;;;;;;;6.03;3.03;;;17.20;99.90;;;;;;5051866;28;20420;-76
2023/09/19 07:33:11;;;;;;;4.80;2.10;;;17.20;99.90;;;;;;5017255;28;20462;-75
2023/09/19 07:35:39;;;;;;;8.13;2.40;;;17.40;99.90;;;;;;5050689;28;20440;-73
2023/09/19 07:38:05;;;;;;;11.60;3.00;;;17.50;99.60;;;;;;5051031;28;20405;-74
2023/09/19 07:40:31;;;;;;;5.07;2.40;;;17.50;98.40;;;;;;5035203;28;20416;-74
2023/09/19 07:43:01;;;;;;;5.40;2.10;;;17.50;98.10;;;;;;5052504;28;20434;-73
2023/09/19 07:45:29;;;;;;;6.27;2.80;;;17.70;97.90;;;;;;5052454;28;20186;-73
2023/09/19 07:47:57;;;;;;;11.63;3.20;;;17.80;97.30;;;;;;5052413;28;20480;-75
2023/09/19 07:50:26;;;;;;;10.50;3.00;;;17.80;95.80;;;;;;5052764;28;20416;-75
2023/09/19 07:52:58;;;;;;;5.40;2.20;;;17.90;95.70;;;;;;5054820;28;20406;-75
2023/09/19 07:55:47;;;;;;;5.87;1.50;;;17.90;95.20;;;;;;5056122;28;20403;-75
2023/09/19 08:04:04;;;;;;;6.77;2.43;;;18.30;93.00;;;;;;5142357;22;20506;-75
2023/09/19 08:06:51;;;;;;;5.43;2.73;;;18.50;92.10;;;;;;5065548;28;20436;-76
2023/09/19 08:09:20;;;;;;;7.60;2.20;;;18.50;91.10;;;;;;5053825;28;20441;-72
2023/09/19 08:11:50;;;;;;;3.30;1.60;;;18.50;90.70;;;;;;5035437;28;20425;-73
2023/09/19 08:14:16;;;;;;;4.93;2.40;;;18.60;90.70;;;;;;5033245;28;20440;-75
2023/09/19 08:16:42;;;;;;;4.70;2.37;;;18.70;89.70;;;;;;5051690;28;20429;-74
2023/09/19 08:19:10;;;;;;;10.23;3.23;;;18.80;89.20;;;;;;5032132;28;20197;-73
2023/09/19 08:21:37;;;;;;;7.93;3.13;;;19.00;86.90;;;;;;5050204;28;20429;-75
2023/09/19 08:24:05;;;;;;;5.40;2.50;;;19.00;85.10;;;;;;5033203;28;20449;-75
2023/09/19 08:26:33;;;;;;;10.57;2.93;;;19.10;84.40;;;;;;5037155;28;20556;-75
2023/09/19 08:28:58;;;;;;;7.07;2.37;;;19.20;83.10;;;;;;5021675;28;20553;-74
2023/09/19 08:31:26;;;;;;;12.40;2.80;;;19.30;81.20;;;;;;5051220;28;20238;-74
2023/09/19 08:33:53;;;;;;;8.30;2.90;;;19.40;80.50;;;;;;5034030;28;20214;-74
2023/09/19 08:36:20;;;;;;;7.80;3.00;;;19.60;80.10;;;;;;5034475;28;20398;-72
2023/09/19 08:38:46;;;;;;;8.93;2.87;;;19.80;77.40;;;;;;5035977;28;20422;-73
2023/09/19 08:41:12;;;;;;;10.57;3.33;;;19.90;76.70;;;;;;5049988;28;20452;-73
2023/09/19 08:43:38;;;;;;;11.30;3.00;;;19.80;75.00;;;;;;5034586;28;20206;-73
2023/09/19 08:46:31;;;;;;;7.13;3.10;;;19.90;75.20;;;;;;5054795;28;20249;-74
2023/09/19 08:49:05;;;;;;;6.87;2.57;;;20.00;72.50;;;;;;5052882;28;20416;-75
2023/09/19 08:51:44;;;;;;;6.40;2.77;;;19.90;73.70;;;;;;5052794;28;20437;-74
2023/09/19 08:54:26;;;;;;;5.70;2.70;;;19.90;72.90;;;;;;5067248;28;20433;-75
2023/09/19 08:56:54;;;;;;;12.47;2.70;;;20.00;72.50;;;;;;5067143;28;20424;-74
2023/09/19 08:59:28;;;;;;;8.30;3.50;;;20.00;71.90;;;;;;5050100;28;20805;-73
2023/09/19 09:01:54;;;;;;;5.00;2.57;;;20.00;70.90;;;;;;5066355;28;20397;-73
2023/09/19 09:04:22;;;;;;;6.73;2.80;;;20.10;70.00;;;;;;5068091;28;20436;-75
2023/09/19 09:06:53;;;;;;;6.03;2.33;;;20.10;69.40;;;;;;5071090;28;20735;-75
2023/09/19 09:09:20;;;;;;;4.93;1.90;;;20.20;68.90;;;;;;5071765;28;20421;-74
2023/09/19 09:11:52;;;;;;;4.53;1.67;;;20.20;68.00;;;;;;5070473;28;20820;-74
2023/09/19 09:14:21;;;;;;;4.00;1.80;;;20.20;67.00;;;;;;5069275;28;20445;-74
2023/09/19 09:16:48;;;;;;;8.13;2.70;;;20.20;66.00;;;;;;5069876;28;20496;-75
2023/09/19 09:19:23;;;;;;;7.53;2.30;;;20.20;63.90;;;;;;5070694;28;20440;-73
2023/09/19 09:21:50;;;;;;;3.30;2.17;;;20.00;64.10;;;;;;5048312;28;20558;-75
2023/09/19 09:24:30;;;;;;;5.87;2.10;;;20.10;65.10;;;;;;5060931;28;20494;-74
2023/09/19 09:26:59;;;;;;;9.73;2.67;;;20.20;65.30;;;;;;5034523;28;20460;-73
2023/09/19 09:29:49;;;;;;;4.27;2.00;;;20.30;64.30;;;;;;5048477;28;20415;-73
2023/09/19 09:32:28;;;;;;;4.70;2.67;;;20.40;62.90;;;;;;5049786;28;20685;-71
2023/09/19 09:34:56;;;;;;;6.83;2.23;;;20.50;61.50;;;;;;5068217;28;20440;-76
2023/09/19 09:37:24;;;;;;;3.87;1.83;;;20.50;61.30;;;;;;5036567;28;20433;-75
2023/09/19 09:42:46;;;;;;;4.13;1.77;;;20.50;60.90;;;;;;5071816;28;20427;-75
2023/09/19 09:45:37;;;;;;;6.63;2.40;;;20.60;60.70;;;;;;5074101;28;20384;-74
2023/09/19 09:48:15;;;;;;;5.77;2.17;;;20.60;59.40;;;;;;5072025;28;20444;-74
2023/09/19 09:53:32;;;;;;;4.60;2.03;;;20.70;59.20;;;;;;5258970;23;20471;-76
2023/09/19 09:56:09;;;;;;;8.40;2.03;;;20.80;59.30;;;;;;5095256;28;20439;-73
2023/09/19 09:58:55;;;;;;;4.33;2.07;;;20.70;58.30;;;;;;5093816;28;20438;-75
2023/09/19 10:01:26;;;;;;;6.70;2.03;;;20.80;58.70;;;;;;5098108;28;20445;-74
2023/09/19 10:04:00;;;;;;;6.57;2.40;;;20.80;58.80;;;;;;5113370;28;20438;-76
2023/09/19 10:06:46;;;;;;;6.43;2.30;;;20.80;58.40;;;;;;5116717;28;20454;-75
2023/09/19 10:09:29;;;;;;;5.60;2.40;;;20.80;57.50;;;;;;5099461;28;20419;-76
2023/09/19 10:12:11;;;;;;;6.30;2.80;;;20.80;57.80;;;;;;5078518;28;20442;-76
2023/09/19 10:14:46;;;;;;;8.40;2.57;;;20.80;57.50;;;;;;5074997;28;20460;-75
2023/09/19 10:17:20;;;;;;;3.07;2.17;;;20.90;57.40;;;;;;5081849;28;20687;-74
2023/09/19 10:20:23;;;;;;;4.33;1.70;;;21.10;57.50;;;;;;5068762;28;20440;-72
2023/09/19 10:22:56;;;;;;;6.40;2.83;;;21.20;57.90;;;;;;5032805;28;20484;-75
2023/09/19 10:25:33;;;;;;;5.70;2.30;;;21.30;57.40;;;;;;4995018;28;20416;-76
2023/09/19 10:28:06;;;;;;;4.90;2.43;;;21.50;57.50;;;;;;4962196;28;20439;-75
2023/09/19 10:30:51;;;;;;;5.43;2.23;;;21.60;57.20;;;;;;4994890;28;20415;-75
2023/09/19 10:33:22;;;;;;;5.97;2.60;;;21.70;56.80;;;;;;4962852;28;20451;-75
2023/09/19 10:35:51;;;;;;;4.30;2.33;;;21.60;56.20;;;;;;4958449;28;20438;-76
2023/09/19 10:38:28;;;;;;;6.80;2.10;;;21.80;56.50;;;;;;4963256;28;20894;-75
2023/09/19 10:40:59;;;;;;;6.50;2.27;;;22.00;56.30;;;;;;4975563;29;20954;-76
2023/09/19 10:43:38;;;;;;;5.93;2.50;;;22.10;56.30;;;;;;4972050;29;20460;-74
2023/09/19 10:46:10;;;;;;;4.17;2.20;;;22.10;55.60;;;;;;4957444;29;20440;-74
2023/09/19 10:48:43;;;;;;;5.17;1.70;;;22.10;55.70;;;;;;4973135;28;20452;-75
2023/09/19 10:51:23;;;;;;;4.50;1.60;;;22.20;55.30;;;;;;4966051;29;20485;-75
2023/09/19 10:53:56;;;;;;;3.37;2.17;;;22.30;55.10;;;;;;4937272;29;20465;-75
2023/09/19 10:56:32;;;;;;;3.47;2.40;;;22.50;54.50;;;;;;4970060;28;20470;-75
2023/09/19 10:59:12;;;;;;;6.17;2.43;;;22.40;54.60;;;;;;4988609;28;20428;-75
2023/09/19 11:01:58;;;;;;;6.20;2.30;;;22.40;54.30;;;;;;5031175;28;20489;-75
2023/09/19 11:04:24;;;;;;;9.33;2.77;;;22.30;54.70;;;;;;5018404;28;20453;-76
2023/09/19 11:07:14;;;;;;;5.43;2.23;;;22.20;54.30;;;;;;5064739;28;20467;-76
2023/09/19 11:09:47;;;;;;;6.23;2.30;;;22.10;54.60;;;;;;5092540;28;20414;-75
2023/09/19 11:12:40;;;;;;;5.47;2.90;;;22.20;54.70;;;;;;5085578;28;20451;-76
2023/09/19 11:15:08;;;;;;;7.10;2.57;;;22.20;54.00;;;;;;5111499;28;20434;-76
2023/09/19 11:17:46;;;;;;;6.10;1.83;;;22.30;53.90;;;;;;5111220;28;20407;-74
2023/09/19 11:20:24;;;;;;;4.80;1.97;;;22.40;53.80;;;;;;5093532;28;20800;-75
2023/09/19 11:23:13;;;;;;;4.20;2.43;;;22.70;53.30;;;;;;5092252;28;20403;-75
2023/09/19 11:25:47;;;;;;;6.60;2.73;;;22.70;52.40;;;;;;5091149;28;20765;-77
2023/09/19 11:30:43;;;;;;;7.70;2.70;;;22.70;52.10;;;;;;5100708;28;20411;-74
2023/09/19 11:33:33;;;;;;;4.73;2.17;;;22.60;51.60;;;;;;5111879;28;20204;-75
2023/09/19 11:36:12;;;;;;;4.70;2.27;;;22.40;51.80;;;;;;5059855;28;20473;-75
2023/09/19 11:38:50;;;;;;;5.87;2.77;;;22.40;52.10;;;;;;5073850;28;20437;-74
2023/09/19 11:41:36;;;;;;;6.80;2.90;;;22.30;51.20;;;;;;5081815;28;20411;-73
2023/09/19 11:44:05;;;;;;;4.27;2.23;;;22.30;51.10;;;;;;5078849;28;20451;-74
2023/09/19 11:46:33;;;;;;;5.70;2.53;;;22.50;51.50;;;;;;5103169;28;20468;-75
2023/09/19 11:49:13;;;;;;;5.70;2.47;;;22.60;51.20;;;;;;5100742;28;20415;-75
2023/09/19 11:51:45;;;;;;;3.77;2.10;;;22.70;50.30;;;;;;5106655;28;20422;-75
2023/09/19 11:54:33;;;;;;;4.10;2.20;;;22.70;50.60;;;;;;5091451;28;20589;-76
2023/09/19 11:57:00;;;;;;;8.47;2.93;;;22.60;50.50;;;;;;5107162;28;20430;-74
2023/09/19 11:59:32;;;;;;;5.60;2.57;;;22.70;50.20;;;;;;5115233;28;20441;-76
2023/09/19 12:02:04;;;;;;;3.93;2.27;;;22.60;49.90;;;;;;5113942;28;20475;-75
2023/09/19 12:04:43;;;;;;;7.63;2.40;;;22.60;49.90;;;;;;5068657;28;20451;-75
2023/09/19 12:07:16;;;;;;;5.30;2.40;;;22.60;49.80;;;;;;5074478;28;20460;-75
2023/09/19 12:09:44;;;;;;;4.70;2.23;;;22.50;49.60;;;;;;5073696;28;20416;-74
2023/09/19 12:12:36;;;;;;;4.30;2.10;;;22.40;49.40;;;;;;5080224;28;21144;-76
2023/09/19 12:15:03;;;;;;;7.10;2.20;;;22.30;49.80;;;;;;5100406;28;20471;-75
2023/09/19 12:17:44;;;;;;;6.77;2.90;;;22.20;49.60;;;;;;5096975;28;20423;-75
2023/09/19 12:20:13;;;;;;;5.60;1.70;;;22.00;48.80;;;;;;5091719;28;20428;-75
2023/09/19 12:22:43;;;;;;;2.77;1.70;;;21.80;49.40;;;;;;5059657;28;20417;-76
2023/09/19 12:25:11;;;;;;;4.90;2.20;;;21.70;50.00;;;;;;5076901;28;20431;-74
2023/09/19 12:27:46;;;;;;;8.00;3.00;;;21.60;50.10;;;;;;5094635;28;20494;-76
2023/09/19 12:30:24;;;;;;;3.20;1.40;;;21.50;50.00;;;;;;5108039;28;20394;-76
2023/09/19 12:32:52;;;;;;;4.33;1.90;;;21.40;50.20;;;;;;5114196;28;20498;-75
2023/09/19 12:35:30;;;;;;;2.53;1.83;;;21.40;50.30;;;;;;5077553;28;20414;-75
2023/09/19 12:37:56;;;;;;;5.40;2.30;;;21.40;50.80;;;;;;5064325;28;20474;-75
2023/09/19 12:40:27;;;;;;;5.30;2.60;;;21.40;50.40;;;;;;5074788;28;20496;-74
2023/09/19 12:43:02;;;;;;;4.87;1.90;;;21.30;50.40;;;;;;5064036;28;20428;-75
2023/09/19 12:45:42;;;;;;;9.00;2.73;;;21.30;50.20;;;;;;5058987;28;20917;-76
2023/09/19 12:48:32;;;;;;;3.87;2.50;;;21.20;50.50;;;;;;5058727;28;20456;-75
2023/09/19 12:51:16;;;;;;;7.50;2.30;;;21.20;50.50;;;;;;5098727;28;20441;-74
2023/09/19 12:53:46;;;;;;;6.30;2.37;;;21.20;51.00;;;;;;5114938;28;20457;-75
2023/09/19 12:56:30;;;;;;;4.80;2.50;;;21.30;51.00;;;;;;5082373;28;20501;-76
2023/09/19 12:59:03;;;;;;;5.17;2.87;;;21.30;51.10;;;;;;5085373;28;20421;-76
2023/09/19 13:01:29;;;;;;;4.43;2.60;;;21.30;51.20;;;;;;5059230;28;20427;-76
2023/09/19 13:04:28;;;;;;;4.20;1.93;;;21.40;50.60;;;;;;5093446;28;20400;-75
2023/09/19 13:07:01;;;;;;;3.57;1.50;;;21.40;50.60;;;;;;5075513;28;20528;-75
2023/09/19 13:09:35;;;;;;;4.60;2.03;;;21.30;50.50;;;;;;5061358;28;20407;-75
2023/09/19 13:12:31;;;;;;;4.50;1.80;;;21.30;50.70;;;;;;5076676;28;20419;-75
2023/09/19 13:15:13;;;;;;;2.40;1.50;;;21.40;50.80;;;;;;5075098;28;20212;-75
2023/09/19 13:17:48;;;;;;;4.30;1.80;;;21.40;50.30;;;;;;5076431;28;20472;-74
2023/09/19 13:20:27;;;;;;;6.03;2.13;;;21.50;50.50;;;;;;5076519;28;20419;-76